Time;durP1;ratioP1;P1;durP2;ratioP2;P2;SDS_P1;SDS_P2;PMS_P1;PMS_P2;Temp;Humidity;BMP_temperature;BMP_pressure;BME280_temperature;BME280_humidity;BME280_pressure;Samples;Min_cycle;Max_cycle;Signal;HPM_P1;HPM_P2
2022/06/19 00:01:42;;;;;;;7.50;4.40;;;;;;;;;;767865;180;918714;-68
2022/06/19 00:04:08;;;;;;;6.13;4.97;;;;;;;;;;771368;180;917772;-68
2022/06/19 00:06:35;;;;;;;7.00;4.10;;;;;;;;;;760216;181;919373;-68
2022/06/19 00:09:00;;;;;;;4.80;3.97;;;;;;;;;;771570;180;901626;-69
2022/06/19 00:11:27;;;;;;;19.40;5.07;;;;;;;;;;776970;180;918946;-68
2022/06/19 00:13:52;;;;;;;6.53;4.40;;;;;;;;;;763739;180;919928;-68
2022/06/19 00:16:18;;;;;;;9.20;5.30;;;;;;;;;;743672;187;919652;-68
2022/06/19 00:18:44;;;;;;;10.67;4.40;;;;;;;;;;736549;188;943977;-68
2022/06/19 00:21:10;;;;;;;6.68;4.32;;;;;;;;;;763863;179;947905;-68
2022/06/19 00:23:36;;;;;;;7.00;4.30;;;;;;;;;;760838;181;919066;-69
2022/06/19 00:26:01;;;;;;;7.17;4.20;;;;;;;;;;766614;180;919276;-68
2022/06/19 00:28:27;;;;;;;11.32;4.47;;;;;;;;;;771955;181;921603;-68
2022/06/19 00:30:53;;;;;;;11.07;4.47;;;;;;;;;;767034;181;919615;-67
2022/06/19 00:33:19;;;;;;;8.77;5.10;;;;;;;;;;765182;181;918387;-69
2022/06/19 00:35:45;;;;;;;9.60;4.77;;;;;;;;;;730098;188;919423;-68
2022/06/19 00:38:11;;;;;;;13.10;4.43;;;;;;;;;;768697;181;919732;-69
2022/06/19 00:40:37;;;;;;;14.53;4.47;;;;;;;;;;775247;181;918301;-68
2022/06/19 00:43:03;;;;;;;5.40;4.27;;;;;;;;;;769387;180;918695;-68
2022/06/19 00:45:30;;;;;;;11.30;4.40;;;;;;;;;;769292;180;1017421;-68
2022/06/19 00:47:56;;;;;;;9.87;4.80;;;;;;;;;;759777;181;918622;-68
2022/06/19 00:50:22;;;;;;;9.27;4.95;;;;;;;;;;758443;184;919495;-68
2022/06/19 00:52:48;;;;;;;8.30;4.27;;;;;;;;;;739651;186;919067;-68
2022/06/19 00:55:14;;;;;;;9.07;3.93;;;;;;;;;;733908;186;918084;-67
2022/06/19 00:57:40;;;;;;;5.90;4.30;;;;;;;;;;753887;185;916805;-68
2022/06/19 01:00:09;;;;;;;7.40;5.10;;;;;;;;;;759247;182;918562;-68
2022/06/19 01:02:35;;;;;;;10.80;4.57;;;;;;;;;;766593;181;1019548;-67
2022/06/19 01:05:01;;;;;;;19.13;5.30;;;;;;;;;;759861;181;919236;-67
2022/06/19 01:07:27;;;;;;;7.70;5.00;;;;;;;;;;760818;181;919281;-70
2022/06/19 01:09:53;;;;;;;5.00;4.23;;;;;;;;;;728304;189;1042121;-67
2022/06/19 01:12:19;;;;;;;6.37;4.10;;;;;;;;;;742041;188;918821;-69
2022/06/19 01:14:44;;;;;;;6.27;4.50;;;;;;;;;;739366;185;919153;-67
2022/06/19 01:17:10;;;;;;;11.23;5.23;;;;;;;;;;751803;184;918855;-68
2022/06/19 01:19:38;;;;;;;6.13;4.90;;;;;;;;;;769092;180;919092;-67
2022/06/19 01:22:03;;;;;;;6.67;5.00;;;;;;;;;;771376;181;919165;-68
2022/06/19 01:24:29;;;;;;;8.83;4.83;;;;;;;;;;759066;181;919455;-68
2022/06/19 01:26:55;;;;;;;8.73;4.57;;;;;;;;;;767427;180;919246;-68
2022/06/19 01:29:20;;;;;;;8.33;5.20;;;;;;;;;;775178;181;918378;-68
2022/06/19 01:31:47;;;;;;;6.73;4.40;;;;;;;;;;740339;185;919635;-69
2022/06/19 01:36:44;;;;;;;8.85;4.25;;;;;;;;;;760328;181;918747;-68
2022/06/19 01:39:10;;;;;;;16.63;5.23;;;;;;;;;;769826;180;918824;-69
2022/06/19 01:41:36;;;;;;;15.30;4.90;;;;;;;;;;762977;181;919604;-69
2022/06/19 01:44:02;;;;;;;13.47;4.87;;;;;;;;;;759353;181;917675;-70
2022/06/19 01:46:28;;;;;;;6.40;4.40;;;;;;;;;;768356;180;917615;-69
2022/06/19 01:48:54;;;;;;;12.40;5.00;;;;;;;;;;770037;181;919172;-69
2022/06/19 01:51:20;;;;;;;12.83;5.37;;;;;;;;;;763824;181;919396;-69
2022/06/19 01:53:46;;;;;;;6.77;5.03;;;;;;;;;;768093;180;918492;-69
2022/06/19 01:56:12;;;;;;;10.55;5.00;;;;;;;;;;766531;181;919310;-69
2022/06/19 01:58:37;;;;;;;6.67;4.63;;;;;;;;;;766728;180;919414;-69
2022/06/19 02:01:04;;;;;;;13.67;4.97;;;;;;;;;;765846;180;919447;-69
2022/06/19 02:03:29;;;;;;;11.73;4.70;;;;;;;;;;765560;180;918904;-69
2022/06/19 02:05:55;;;;;;;15.93;5.87;;;;;;;;;;770323;180;919521;-69
2022/06/19 02:08:21;;;;;;;15.65;4.20;;;;;;;;;;764956;180;919693;-68
2022/06/19 02:10:47;;;;;;;11.90;5.40;;;;;;;;;;733639;189;931833;-70
2022/06/19 02:13:13;;;;;;;9.40;4.80;;;;;;;;;;761491;180;918116;-70
2022/06/19 02:15:39;;;;;;;7.07;4.82;;;;;;;;;;770539;181;920194;-70
2022/06/19 02:18:05;;;;;;;8.80;5.03;;;;;;;;;;769026;180;919777;-70
2022/06/19 02:20:30;;;;;;;7.30;4.47;;;;;;;;;;737107;185;918069;-70
2022/06/19 02:22:57;;;;;;;9.25;5.00;;;;;;;;;;767015;180;935907;-70
2022/06/19 02:25:22;;;;;;;12.60;5.27;;;;;;;;;;768282;181;922220;-69
2022/06/19 02:27:48;;;;;;;8.83;5.10;;;;;;;;;;770752;180;917991;-68
2022/06/19 02:30:14;;;;;;;5.47;4.67;;;;;;;;;;761308;180;918929;-68
2022/06/19 02:32:40;;;;;;;12.80;5.07;;;;;;;;;;765151;180;918600;-68
2022/06/19 02:35:06;;;;;;;7.80;4.93;;;;;;;;;;770267;181;917641;-69
2022/06/19 02:37:32;;;;;;;8.37;5.13;;;;;;;;;;756761;180;1331539;-70
2022/06/19 02:39:59;;;;;;;12.80;5.10;;;;;;;;;;769715;180;917885;-69
2022/06/19 02:42:41;;;;;;;8.80;5.13;;;;;;;;;;764371;181;919130;-69
2022/06/19 02:45:10;;;;;;;10.63;4.80;;;;;;;;;;781349;180;918430;-70
2022/06/19 02:47:34;;;;;;;13.37;5.67;;;;;;;;;;754522;184;918163;-70
2022/06/19 02:49:59;;;;;;;10.67;5.73;;;;;;;;;;758331;180;919382;-69
2022/06/19 02:52:25;;;;;;;11.87;5.20;;;;;;;;;;771352;181;929614;-69
2022/06/19 02:54:51;;;;;;;8.60;4.17;;;;;;;;;;764234;180;919441;-70
2022/06/19 02:57:17;;;;;;;9.43;5.17;;;;;;;;;;764297;181;919943;-70
2022/06/19 02:59:43;;;;;;;8.83;5.63;;;;;;;;;;738482;188;948112;-69
2022/06/19 03:02:09;;;;;;;10.53;5.80;;;;;;;;;;768354;181;919105;-69
2022/06/19 03:04:35;;;;;;;10.17;5.20;;;;;;;;;;771243;180;952259;-70
2022/06/19 03:07:01;;;;;;;10.53;5.07;;;;;;;;;;761175;180;919071;-70
2022/06/19 03:09:27;;;;;;;10.83;5.60;;;;;;;;;;768143;181;918924;-70
2022/06/19 03:11:53;;;;;;;7.10;5.27;;;;;;;;;;739875;186;919410;-70
2022/06/19 03:14:19;;;;;;;9.57;4.90;;;;;;;;;;761213;181;1122751;-70
2022/06/19 03:16:46;;;;;;;16.10;5.00;;;;;;;;;;762683;181;918554;-68
2022/06/19 03:19:12;;;;;;;8.63;5.00;;;;;;;;;;768909;181;919586;-70
2022/06/19 03:21:38;;;;;;;10.37;5.20;;;;;;;;;;765063;181;919417;-70
2022/06/19 03:24:04;;;;;;;11.07;5.33;;;;;;;;;;762524;181;919488;-70
2022/06/19 03:26:30;;;;;;;9.90;5.03;;;;;;;;;;738715;190;919164;-70
2022/06/19 03:28:56;;;;;;;9.03;5.30;;;;;;;;;;729178;188;919700;-71
2022/06/19 03:31:22;;;;;;;11.23;6.03;;;;;;;;;;759383;181;1022171;-70
2022/06/19 03:33:48;;;;;;;6.80;5.30;;;;;;;;;;773320;181;918099;-70
2022/06/19 03:36:14;;;;;;;8.53;5.57;;;;;;;;;;769356;181;919986;-70
2022/06/19 03:38:41;;;;;;;8.63;5.75;;;;;;;;;;764179;180;920803;-70
2022/06/19 03:41:06;;;;;;;14.40;5.97;;;;;;;;;;756745;181;921603;-70
2022/06/19 03:43:33;;;;;;;11.13;6.00;;;;;;;;;;760206;180;920764;-70
2022/06/19 03:45:59;;;;;;;13.43;6.20;;;;;;;;;;759661;180;920105;-70
2022/06/19 03:48:24;;;;;;;11.30;6.10;;;;;;;;;;761550;181;919474;-69
2022/06/19 03:50:51;;;;;;;17.03;6.43;;;;;;;;;;774739;181;918769;-70
2022/06/19 03:53:17;;;;;;;10.60;6.97;;;;;;;;;;761063;181;919174;-70
2022/06/19 03:55:43;;;;;;;8.90;6.63;;;;;;;;;;767056;181;917959;-70
2022/06/19 03:58:09;;;;;;;10.63;7.57;;;;;;;;;;771727;180;921786;-72
2022/06/19 04:00:35;;;;;;;12.10;6.37;;;;;;;;;;771182;180;916490;-70
2022/06/19 04:03:01;;;;;;;13.80;7.40;;;;;;;;;;763770;181;947574;-70
2022/06/19 04:05:26;;;;;;;10.90;7.43;;;;;;;;;;761784;181;918827;-69
2022/06/19 04:07:52;;;;;;;14.70;8.23;;;;;;;;;;767349;181;910619;-70
2022/06/19 04:10:18;;;;;;;8.53;7.60;;;;;;;;;;762312;181;925859;-70
2022/06/19 04:12:44;;;;;;;12.73;8.60;;;;;;;;;;764104;180;918658;-70
2022/06/19 04:15:10;;;;;;;10.13;9.03;;;;;;;;;;767202;181;908125;-70
2022/06/19 04:17:36;;;;;;;17.17;8.53;;;;;;;;;;771231;181;915315;-70
2022/06/19 04:20:02;;;;;;;13.73;8.47;;;;;;;;;;764593;181;935180;-70
2022/06/19 04:22:28;;;;;;;13.40;8.80;;;;;;;;;;770326;181;908640;-69
2022/06/19 04:24:54;;;;;;;21.93;10.53;;;;;;;;;;770932;181;916219;-70
2022/06/19 04:27:20;;;;;;;12.77;10.40;;;;;;;;;;768976;181;917380;-70
2022/06/19 04:29:46;;;;;;;15.77;11.82;;;;;;;;;;757198;181;916753;-69
2022/06/19 04:32:12;;;;;;;15.77;11.10;;;;;;;;;;756157;181;916207;-70
2022/06/19 04:34:37;;;;;;;10.80;9.37;;;;;;;;;;756013;181;915801;-70
2022/06/19 04:37:03;;;;;;;15.20;10.82;;;;;;;;;;760353;180;918828;-71
2022/06/19 04:39:29;;;;;;;18.50;10.40;;;;;;;;;;774606;180;919517;-70
2022/06/19 04:41:55;;;;;;;14.50;10.97;;;;;;;;;;767371;180;899930;-70
2022/06/19 04:44:21;;;;;;;15.07;12.37;;;;;;;;;;761243;180;919031;-70
2022/06/19 04:46:47;;;;;;;24.53;13.97;;;;;;;;;;773096;180;918097;-70
2022/06/19 04:49:13;;;;;;;16.80;14.53;;;;;;;;;;765273;181;919537;-72
2022/06/19 04:51:38;;;;;;;27.20;15.57;;;;;;;;;;765995;181;938273;-71
2022/06/19 04:54:05;;;;;;;19.63;14.43;;;;;;;;;;766461;180;942095;-71
2022/06/19 04:56:30;;;;;;;15.63;13.53;;;;;;;;;;745065;185;921793;-70
2022/06/19 04:58:56;;;;;;;18.87;13.97;;;;;;;;;;766724;181;919496;-71
2022/06/19 05:01:23;;;;;;;18.47;15.90;;;;;;;;;;767159;180;919377;-70
2022/06/19 05:03:48;;;;;;;19.00;16.00;;;;;;;;;;771252;180;919381;-71
2022/06/19 05:06:14;;;;;;;23.33;17.10;;;;;;;;;;767097;181;918379;-71
2022/06/19 05:08:40;;;;;;;21.05;17.55;;;;;;;;;;732662;188;894010;-70
2022/06/19 05:11:05;;;;;;;22.30;18.63;;;;;;;;;;766515;181;916647;-71
2022/06/19 05:13:31;;;;;;;17.17;15.37;;;;;;;;;;764801;181;918770;-72
2022/06/19 05:16:01;;;;;;;17.30;15.50;;;;;;;;;;764086;181;918762;-72
2022/06/19 05:18:27;;;;;;;19.60;13.63;;;;;;;;;;762319;180;918791;-70
2022/06/19 05:20:55;;;;;;;21.13;14.93;;;;;;;;;;765834;181;919224;-71
2022/06/19 05:23:21;;;;;;;15.17;13.67;;;;;;;;;;766125;181;918923;-71
2022/06/19 05:25:47;;;;;;;11.80;10.50;;;;;;;;;;767540;180;919491;-71
2022/06/19 05:28:12;;;;;;;10.23;9.23;;;;;;;;;;772723;180;918745;-71
2022/06/19 05:30:38;;;;;;;11.97;8.50;;;;;;;;;;765426;180;918998;-73
2022/06/19 05:33:04;;;;;;;9.27;8.35;;;;;;;;;;766342;180;918105;-71
2022/06/19 05:35:30;;;;;;;13.03;10.73;;;;;;;;;;766050;180;917992;-73
2022/06/19 05:37:56;;;;;;;8.30;7.50;;;;;;;;;;765291;181;918640;-71
2022/06/19 05:40:22;;;;;;;8.20;7.40;;;;;;;;;;769210;180;918592;-71
2022/06/19 05:42:48;;;;;;;9.70;7.00;;;;;;;;;;760376;180;983808;-71
2022/06/19 05:45:13;;;;;;;8.10;6.90;;;;;;;;;;772431;177;918523;-72
2022/06/19 05:47:39;;;;;;;9.27;6.80;;;;;;;;;;744705;186;918854;-72
2022/06/19 05:50:07;;;;;;;8.00;6.00;;;;;;;;;;767317;180;651948;-72
2022/06/19 05:52:33;;;;;;;6.90;4.83;;;;;;;;;;768874;181;674386;-73
2022/06/19 05:54:59;;;;;;;6.53;4.80;;;;;;;;;;770329;180;634005;-72
2022/06/19 05:57:25;;;;;;;6.00;4.83;;;;;;;;;;768674;181;642017;-72
2022/06/19 05:59:50;;;;;;;8.40;4.37;;;;;;;;;;776671;181;633210;-74
2022/06/19 06:02:16;;;;;;;5.00;4.07;;;;;;;;;;769060;181;918703;-73
2022/06/19 06:04:42;;;;;;;5.40;3.80;;;;;;;;;;769964;179;918649;-73
2022/06/19 06:07:08;;;;;;;11.17;4.00;;;;;;;;;;768599;180;917907;-73
2022/06/19 06:09:34;;;;;;;9.23;3.33;;;;;;;;;;768337;180;651603;-74
2022/06/19 06:12:00;;;;;;;6.50;3.63;;;;;;;;;;767153;181;918367;-75
2022/06/19 06:14:25;;;;;;;4.30;3.00;;;;;;;;;;760800;181;614504;-74
2022/06/19 06:16:51;;;;;;;5.43;3.20;;;;;;;;;;743740;187;621484;-75
2022/06/19 06:19:17;;;;;;;4.50;3.13;;;;;;;;;;767797;180;923938;-74
2022/06/19 06:21:43;;;;;;;5.00;3.60;;;;;;;;;;763608;180;928653;-75
2022/06/19 06:24:13;;;;;;;4.17;2.87;;;;;;;;;;768135;181;920723;-74
2022/06/19 06:26:35;;;;;;;4.40;3.30;;;;;;;;;;762932;181;920437;-75
2022/06/19 06:29:01;;;;;;;6.37;3.13;;;;;;;;;;768835;180;915137;-76
2022/06/19 06:31:26;;;;;;;4.35;2.67;;;;;;;;;;765558;181;916158;-75
2022/06/19 06:33:53;;;;;;;3.93;2.77;;;;;;;;;;765013;181;919505;-76
2022/06/19 06:36:20;;;;;;;6.13;3.10;;;;;;;;;;766402;181;915191;-80
2022/06/19 06:38:45;;;;;;;4.77;3.43;;;;;;;;;;765563;180;916143;-77
2022/06/19 06:41:11;;;;;;;4.90;2.70;;;;;;;;;;763069;181;1634863;-78
2022/06/19 06:43:37;;;;;;;6.93;2.60;;;;;;;;;;763500;181;915614;-79
2022/06/19 06:46:03;;;;;;;4.00;3.40;;;;;;;;;;764353;181;921034;-77
2022/06/19 06:48:29;;;;;;;7.60;2.83;;;;;;;;;;769716;181;910926;-79
2022/06/19 06:50:55;;;;;;;3.77;3.17;;;;;;;;;;766940;180;1265358;-78
2022/06/19 06:53:21;;;;;;;9.23;3.60;;;;;;;;;;768280;180;919914;-76
2022/06/19 06:55:48;;;;;;;4.97;3.95;;;;;;;;;;768127;181;930092;-75
2022/06/19 06:58:13;;;;;;;3.97;3.57;;;;;;;;;;761270;181;842859;-73
2022/06/19 07:00:39;;;;;;;6.87;3.53;;;;;;;;;;762805;181;918855;-78
2022/06/19 07:03:05;;;;;;;5.70;3.33;;;;;;;;;;769081;180;1022580;-75
2022/06/19 07:05:31;;;;;;;8.00;2.77;;;;;;;;;;755460;181;918581;-77
2022/06/19 07:07:58;;;;;;;8.40;2.90;;;;;;;;;;763956;181;873847;-76
2022/06/19 07:10:23;;;;;;;5.93;3.20;;;;;;;;;;764429;181;918433;-77
2022/06/19 07:12:49;;;;;;;4.63;3.40;;;;;;;;;;768278;181;893460;-76
2022/06/19 07:15:14;;;;;;;3.97;3.13;;;;;;;;;;734661;186;919287;-74
2022/06/19 07:17:40;;;;;;;4.60;3.13;;;;;;;;;;762063;178;923083;-77
2022/06/19 07:20:06;;;;;;;5.47;3.00;;;;;;;;;;742415;187;918469;-75
2022/06/19 07:22:32;;;;;;;4.30;2.90;;;;;;;;;;734320;187;919439;-76
2022/06/19 07:24:58;;;;;;;3.97;2.90;;;;;;;;;;766660;180;918176;-72
2022/06/19 07:27:24;;;;;;;4.57;3.40;;;;;;;;;;762793;180;917098;-74
2022/06/19 07:29:50;;;;;;;5.60;2.93;;;;;;;;;;767328;180;918604;-77
2022/06/19 07:32:15;;;;;;;4.77;2.90;;;;;;;;;;768109;181;919844;-74
2022/06/19 07:34:42;;;;;;;5.77;3.30;;;;;;;;;;768022;179;918777;-76
2022/06/19 07:37:08;;;;;;;15.57;5.90;;;;;;;;;;774007;181;817610;-75
2022/06/19 07:39:35;;;;;;;7.50;3.40;;;;;;;;;;736292;187;629610;-75
2022/06/19 07:42:01;;;;;;;4.57;2.87;;;;;;;;;;734489;188;815069;-73
2022/06/19 07:44:27;;;;;;;5.60;3.07;;;;;;;;;;743192;187;817115;-75
2022/06/19 07:51:56;;;;;;;3.97;2.90;;;;;;;;;;770197;180;816135;-76
2022/06/19 07:54:23;;;;;;;4.85;3.12;;;;;;;;;;770771;181;816414;-77
2022/06/19 07:56:49;;;;;;;5.93;2.67;;;;;;;;;;767819;180;612910;-77
2022/06/19 07:59:15;;;;;;;3.87;3.00;;;;;;;;;;769286;181;713580;-79
2022/06/19 08:01:40;;;;;;;3.77;2.87;;;;;;;;;;764222;180;918897;-80
2022/06/19 08:04:08;;;;;;;4.33;3.00;;;;;;;;;;773560;180;668378;-82
2022/06/19 08:06:34;;;;;;;4.17;3.20;;;;;;;;;;762349;180;1022582;-84
2022/06/19 08:09:00;;;;;;;4.53;2.60;;;;;;;;;;772175;180;659858;-80
2022/06/19 08:11:26;;;;;;;4.47;2.60;;;;;;;;;;774917;180;653372;-77
2022/06/19 08:13:52;;;;;;;6.50;3.00;;;;;;;;;;768355;181;845262;-79
2022/06/19 08:16:18;;;;;;;6.27;3.03;;;;;;;;;;767619;181;918783;-76
2022/06/19 08:18:43;;;;;;;5.80;3.07;;;;;;;;;;765981;181;817082;-80
2022/06/19 08:21:09;;;;;;;4.60;2.87;;;;;;;;;;770120;180;817483;-84
2022/06/19 08:23:35;;;;;;;6.30;3.30;;;;;;;;;;770562;181;628122;-84
2022/06/19 08:26:01;;;;;;;2.97;2.67;;;;;;;;;;766363;180;630606;-76
2022/06/19 08:28:32;;;;;;;8.50;3.80;;;;;;;;;;771416;179;628660;-80
2022/06/19 08:30:55;;;;;;;3.30;2.60;;;;;;;;;;769388;180;637010;-83
2022/06/19 08:33:20;;;;;;;4.50;2.50;;;;;;;;;;768080;180;939682;-77
2022/06/19 08:35:46;;;;;;;4.73;2.93;;;;;;;;;;770003;181;688714;-77
2022/06/19 08:38:12;;;;;;;6.23;2.53;;;;;;;;;;769287;181;721577;-78
2022/06/19 08:40:39;;;;;;;3.20;2.50;;;;;;;;;;740289;186;625062;-79
2022/06/19 08:43:08;;;;;;;4.57;3.13;;;;;;;;;;738677;184;634864;-82
2022/06/19 08:45:33;;;;;;;3.80;2.77;;;;;;;;;;753759;184;736692;-74
2022/06/19 08:48:01;;;;;;;4.07;2.80;;;;;;;;;;742432;186;815562;-80
2022/06/19 08:50:33;;;;;;;3.87;2.80;;;;;;;;;;744237;185;619836;-85
2022/06/19 08:53:00;;;;;;;6.20;2.30;;;;;;;;;;739355;186;938969;-79
2022/06/19 08:55:32;;;;;;;5.60;2.80;;;;;;;;;;752047;186;709811;-75
2022/06/19 08:58:02;;;;;;;7.17;2.40;;;;;;;;;;740504;184;916242;-84
2022/06/19 09:00:45;;;;;;;8.13;2.40;;;;;;;;;;745941;184;816487;-88
2022/06/19 09:03:08;;;;;;;7.73;2.50;;;;;;;;;;738359;185;918325;-76
2022/06/19 09:05:46;;;;;;;6.00;2.20;;;;;;;;;;765434;181;797671;-84
2022/06/19 09:08:31;;;;;;;2.80;2.20;;;;;;;;;;775490;181;918427;-85
2022/06/19 09:11:13;;;;;;;3.20;2.50;;;;;;;;;;768071;180;865272;-85
2022/06/19 09:13:55;;;;;;;5.40;3.50;;;;;;;;;;743885;186;630813;-80
2022/06/19 09:16:22;;;;;;;4.10;2.90;;;;;;;;;;767886;182;662030;-79
2022/06/19 09:19:04;;;;;;;4.10;3.00;;;;;;;;;;753482;183;918319;-78
2022/06/19 09:21:30;;;;;;;4.37;2.90;;;;;;;;;;756204;183;621417;-85
2022/06/19 09:23:56;;;;;;;3.97;2.70;;;;;;;;;;762401;181;814804;-79
2022/06/19 09:26:22;;;;;;;4.87;2.90;;;;;;;;;;768877;181;999544;-79
2022/06/19 09:28:49;;;;;;;7.23;2.73;;;;;;;;;;776711;180;1022069;-83
2022/06/19 09:31:20;;;;;;;4.40;2.10;;;;;;;;;;763647;181;917987;-80
2022/06/19 09:34:03;;;;;;;5.83;2.87;;;;;;;;;;775333;180;667054;-78
2022/06/19 09:36:41;;;;;;;5.90;2.73;;;;;;;;;;762363;181;654061;-75
2022/06/19 09:39:08;;;;;;;4.00;2.93;;;;;;;;;;756588;181;685207;-79
2022/06/19 09:41:35;;;;;;;4.00;2.90;;;;;;;;;;750259;187;647213;-86
2022/06/19 09:44:01;;;;;;;7.53;3.37;;;;;;;;;;735634;187;637522;-83
2022/06/19 09:46:27;;;;;;;3.93;2.37;;;;;;;;;;735131;188;780717;-79
2022/06/19 09:48:53;;;;;;;3.60;2.20;;;;;;;;;;738336;188;842598;-82
2022/06/19 09:51:20;;;;;;;42.40;5.53;;;;;;;;;;768198;180;638407;-79
2022/06/19 09:53:48;;;;;;;3.93;2.77;;;;;;;;;;770102;180;636259;-81
2022/06/19 09:56:18;;;;;;;3.10;2.30;;;;;;;;;;770384;180;667953;-81
2022/06/19 09:58:46;;;;;;;3.50;2.80;;;;;;;;;;773508;181;709358;-81
2022/06/19 10:01:12;;;;;;;8.23;3.40;;;;;;;;;;769988;181;615886;-84
2022/06/19 10:03:40;;;;;;;4.53;3.10;;;;;;;;;;770852;181;649106;-83
2022/06/19 10:06:10;;;;;;;6.30;2.43;;;;;;;;;;771052;180;629391;-76
2022/06/19 10:08:38;;;;;;;4.40;2.77;;;;;;;;;;771706;180;629716;-82
2022/06/19 10:11:17;;;;;;;7.23;3.23;;;;;;;;;;771239;181;813884;-83
2022/06/19 10:13:49;;;;;;;3.70;2.63;;;;;;;;;;765845;180;644069;-85
2022/06/19 10:16:33;;;;;;;7.07;2.87;;;;;;;;;;769411;181;693167;-81
2022/06/19 10:18:59;;;;;;;4.70;2.60;;;;;;;;;;754449;181;765870;-83
2022/06/19 10:23:57;;;;;;;4.30;3.23;;;;;;;;;;773366;180;650892;-80
2022/06/19 10:26:28;;;;;;;4.60;3.30;;;;;;;;;;769879;181;716725;-81
2022/06/19 10:29:00;;;;;;;10.50;2.93;;;;;;;;;;768165;181;676067;-79
2022/06/19 10:31:33;;;;;;;4.67;2.90;;;;;;;;;;768201;181;641954;-80
2022/06/19 10:34:00;;;;;;;3.17;2.40;;;;;;;;;;765974;180;629145;-80
2022/06/19 10:36:26;;;;;;;4.10;2.63;;;;;;;;;;773941;181;668223;-76
2022/06/19 10:38:54;;;;;;;5.57;2.70;;;;;;;;;;771961;180;651407;-76
2022/06/19 10:44:17;;;;;;;4.40;2.43;;;;;;;;;;766166;180;630791;-76
2022/06/19 10:46:43;;;;;;;5.93;2.63;;;;;;;;;;767364;180;617936;-79
2022/06/19 10:49:10;;;;;;;4.60;3.03;;;;;;;;;;770500;181;789337;-78
2022/06/19 10:51:42;;;;;;;6.50;3.20;;;;;;;;;;765056;180;738183;-79
2022/06/19 10:54:08;;;;;;;6.80;2.77;;;;;;;;;;765027;180;933582;-82
2022/06/19 10:56:43;;;;;;;3.77;2.67;;;;;;;;;;770066;180;639182;-80
2022/06/19 10:59:09;;;;;;;7.37;2.87;;;;;;;;;;771667;180;636251;-78
2022/06/19 11:04:07;;;;;;;3.97;2.50;;;;;;;;;;767389;180;653699;-80
2022/06/19 11:06:43;;;;;;;5.77;3.07;;;;;;;;;;766795;181;780871;-83
2022/06/19 11:09:09;;;;;;;3.20;2.17;;;;;;;;;;767068;180;698762;-79
2022/06/19 11:11:35;;;;;;;6.30;3.00;;;;;;;;;;769141;180;709963;-81
2022/06/19 11:14:03;;;;;;;7.70;3.20;;;;;;;;;;771134;181;637546;-81
2022/06/19 11:16:29;;;;;;;5.80;2.63;;;;;;;;;;768601;181;643132;-80
2022/06/19 11:18:56;;;;;;;3.40;2.83;;;;;;;;;;770533;180;633212;-85
2022/06/19 11:21:21;;;;;;;9.10;3.03;;;;;;;;;;770603;180;618675;-81
2022/06/19 11:23:56;;;;;;;7.30;3.03;;;;;;;;;;772552;181;637442;-81
2022/06/19 11:26:22;;;;;;;4.97;2.87;;;;;;;;;;769297;180;640036;-78
2022/06/19 11:28:52;;;;;;;10.70;3.13;;;;;;;;;;746113;188;634786;-81
2022/06/19 11:31:28;;;;;;;9.60;3.50;;;;;;;;;;748413;181;890072;-81
2022/06/19 11:33:54;;;;;;;8.67;3.30;;;;;;;;;;771017;180;710622;-73
2022/06/19 11:36:23;;;;;;;4.33;3.70;;;;;;;;;;776462;180;633981;-72
2022/06/19 11:38:50;;;;;;;5.77;2.83;;;;;;;;;;764981;181;637085;-75
2022/06/19 11:41:15;;;;;;;4.13;2.83;;;;;;;;;;762968;182;635729;-78
2022/06/19 11:43:40;;;;;;;4.80;3.00;;;;;;;;;;765698;181;666414;-72
2022/06/19 11:46:06;;;;;;;3.80;2.77;;;;;;;;;;738604;188;712038;-76
2022/06/19 11:48:32;;;;;;;8.40;3.07;;;;;;;;;;769828;181;773325;-76
2022/06/19 11:50:58;;;;;;;13.70;3.17;;;;;;;;;;769087;180;808691;-78
2022/06/19 11:53:27;;;;;;;4.83;2.53;;;;;;;;;;767851;181;694284;-79
2022/06/19 11:55:53;;;;;;;5.73;3.13;;;;;;;;;;772058;180;673078;-83
2022/06/19 11:58:19;;;;;;;6.37;2.70;;;;;;;;;;763106;180;930589;-74
2022/06/19 12:00:45;;;;;;;6.30;2.80;;;;;;;;;;768045;180;772858;-81
2022/06/19 12:03:14;;;;;;;7.80;3.10;;;;;;;;;;770766;179;632484;-82
2022/06/19 12:05:40;;;;;;;3.10;2.50;;;;;;;;;;773826;180;633461;-77
2022/06/19 12:08:06;;;;;;;4.80;2.30;;;;;;;;;;770382;180;691272;-78
2022/06/19 12:10:32;;;;;;;3.13;2.63;;;;;;;;;;736808;187;711261;-77
2022/06/19 12:12:58;;;;;;;4.83;2.70;;;;;;;;;;741898;188;640496;-77
2022/06/19 12:15:25;;;;;;;4.30;3.00;;;;;;;;;;768022;181;635400;-80
2022/06/19 12:17:56;;;;;;;4.00;2.40;;;;;;;;;;773268;180;918640;-81
2022/06/19 12:20:22;;;;;;;3.77;2.63;;;;;;;;;;767589;181;661737;-81
2022/06/19 12:23:04;;;;;;;4.40;3.00;;;;;;;;;;774852;181;647280;-78
2022/06/19 12:25:39;;;;;;;6.27;3.00;;;;;;;;;;775049;181;617217;-81
2022/06/19 12:28:21;;;;;;;3.87;2.60;;;;;;;;;;756440;183;633347;-82
2022/06/19 12:30:48;;;;;;;4.23;2.90;;;;;;;;;;772034;180;635220;-79
2022/06/19 12:33:16;;;;;;;5.97;2.67;;;;;;;;;;774360;180;705466;-77
2022/06/19 12:35:43;;;;;;;4.33;2.70;;;;;;;;;;768258;181;621571;-81
2022/06/19 12:38:09;;;;;;;6.40;3.50;;;;;;;;;;766347;180;916740;-74
2022/06/19 12:40:45;;;;;;;4.60;2.67;;;;;;;;;;768223;181;640117;-79
2022/06/19 12:43:15;;;;;;;4.10;2.33;;;;;;;;;;767985;180;661902;-84
2022/06/19 12:45:42;;;;;;;5.40;3.27;;;;;;;;;;764965;180;617035;-81
2022/06/19 12:48:24;;;;;;;3.43;2.23;;;;;;;;;;741375;188;668768;-81
2022/06/19 12:50:55;;;;;;;6.97;3.27;;;;;;;;;;757469;184;823336;-81
2022/06/19 12:53:37;;;;;;;4.17;2.50;;;;;;;;;;770196;180;614213;-76
2022/06/19 12:56:23;;;;;;;3.53;2.80;;;;;;;;;;775195;180;811791;-78
2022/06/19 12:58:56;;;;;;;6.40;3.00;;;;;;;;;;770419;181;622711;-79
2022/06/19 13:01:24;;;;;;;2.80;2.33;;;;;;;;;;751346;183;626061;-80
2022/06/19 13:03:52;;;;;;;4.30;2.60;;;;;;;;;;761489;181;815369;-76
2022/06/19 13:06:33;;;;;;;4.33;2.40;;;;;;;;;;744243;187;874765;-79
2022/06/19 13:09:17;;;;;;;3.33;2.43;;;;;;;;;;771944;181;646524;-78
2022/06/19 13:11:59;;;;;;;4.20;2.87;;;;;;;;;;758671;182;935432;-83
2022/06/19 13:14:25;;;;;;;3.80;2.70;;;;;;;;;;747137;181;1248520;-76
2022/06/19 13:16:53;;;;;;;5.73;2.60;;;;;;;;;;779821;181;629446;-79
2022/06/19 13:19:21;;;;;;;4.13;2.60;;;;;;;;;;772574;180;653933;-76
2022/06/19 13:22:02;;;;;;;4.20;2.70;;;;;;;;;;769756;180;632952;-79
2022/06/19 13:24:35;;;;;;;5.37;2.90;;;;;;;;;;765642;180;831316;-82
2022/06/19 13:29:38;;;;;;;3.30;2.60;;;;;;;;;;769058;181;816706;-76
2022/06/19 13:32:18;;;;;;;5.53;2.70;;;;;;;;;;769052;180;897834;-75
2022/06/19 13:34:44;;;;;;;6.30;2.97;;;;;;;;;;764833;181;918765;-76
2022/06/19 13:37:11;;;;;;;3.80;2.78;;;;;;;;;;773180;181;816680;-81
2022/06/19 13:39:37;;;;;;;3.70;2.80;;;;;;;;;;763212;181;903517;-80
2022/06/19 13:42:03;;;;;;;7.47;2.60;;;;;;;;;;762572;181;622979;-80
2022/06/19 13:44:44;;;;;;;6.37;3.57;;;;;;;;;;764322;181;671659;-81
2022/06/19 13:47:11;;;;;;;4.23;2.37;;;;;;;;;;730705;189;636913;-83
2022/06/19 13:49:38;;;;;;;5.10;2.70;;;;;;;;;;739748;187;630542;-79
2022/06/19 13:52:04;;;;;;;3.67;2.70;;;;;;;;;;740498;188;698663;-82
2022/06/19 13:54:32;;;;;;;5.00;2.40;;;;;;;;;;770837;181;631385;-83
2022/06/19 13:57:01;;;;;;;4.67;2.60;;;;;;;;;;769998;180;656480;-73
2022/06/19 13:59:30;;;;;;;6.17;2.90;;;;;;;;;;765505;181;653557;-79
2022/06/19 14:02:11;;;;;;;4.73;2.67;;;;;;;;;;774020;181;619588;-81
2022/06/19 14:07:28;;;;;;;3.67;2.60;;;;;;;;;;765304;181;642395;-79
2022/06/19 14:10:00;;;;;;;3.23;2.40;;;;;;;;;;768039;181;636612;-77
2022/06/19 14:12:27;;;;;;;6.17;2.83;;;;;;;;;;767433;179;640037;-81
2022/06/19 14:14:53;;;;;;;5.03;2.90;;;;;;;;;;768173;180;627095;-75
2022/06/19 14:17:20;;;;;;;3.60;2.53;;;;;;;;;;771883;181;638533;-85
2022/06/19 14:19:49;;;;;;;6.50;2.67;;;;;;;;;;770154;180;650677;-84
2022/06/19 14:22:20;;;;;;;3.73;2.40;;;;;;;;;;770358;181;616878;-83
2022/06/19 14:24:52;;;;;;;3.57;2.47;;;;;;;;;;769553;181;644056;-79
2022/06/19 14:27:34;;;;;;;7.60;2.70;;;;;;;;;;772419;179;636584;-76
2022/06/19 14:30:00;;;;;;;10.20;3.40;;;;;;;;;;747434;187;809151;-81
2022/06/19 14:32:26;;;;;;;4.57;2.37;;;;;;;;;;738980;188;703792;-74
2022/06/19 14:34:53;;;;;;;6.83;3.33;;;;;;;;;;742147;188;649674;-78
2022/06/19 14:37:35;;;;;;;7.43;3.00;;;;;;;;;;769013;180;764247;-80
2022/06/19 14:40:03;;;;;;;4.70;2.50;;;;;;;;;;757346;181;637872;-76
2022/06/19 14:42:29;;;;;;;10.10;2.90;;;;;;;;;;769550;181;649991;-77
2022/06/19 14:44:57;;;;;;;6.10;2.60;;;;;;;;;;766665;180;630912;-76
2022/06/19 14:47:25;;;;;;;8.48;2.60;;;;;;;;;;760322;180;1707882;-77
2022/06/19 14:49:57;;;;;;;4.00;2.60;;;;;;;;;;770940;181;748076;-79